createdAt,value
2017-09-25T00:00:15.984Z,95.2
2017-09-25T00:01:17.628Z,95.2
2017-09-25T00:02:19.263Z,94.7
2017-09-25T00:03:20.892Z,95.5
2017-09-25T00:04:22.525Z,95.5
2017-09-25T00:05:24.153Z,95.1
2017-09-25T00:06:25.785Z,95.2
2017-09-25T00:07:27.415Z,95.3
2017-09-25T00:08:29.050Z,94.5
2017-09-25T00:09:30.677Z,95.3
2017-09-25T00:10:32.307Z,94.4
2017-09-25T00:11:33.956Z,95.0
2017-09-25T00:12:35.570Z,95.1
2017-09-25T00:13:37.202Z,95.0
2017-09-25T00:14:38.836Z,95.0
2017-09-25T00:15:40.465Z,95.2
2017-09-25T00:16:42.095Z,95.0
2017-09-25T00:17:43.726Z,94.5
2017-09-25T00:18:45.357Z,95.0
2017-09-25T00:19:46.990Z,95.1
2017-09-25T00:20:48.620Z,95.4
2017-09-25T00:21:50.250Z,95.3
2017-09-25T00:22:51.880Z,95.2
2017-09-25T00:23:53.511Z,94.5
2017-09-25T00:24:55.141Z,94.8
2017-09-25T00:25:56.771Z,93.5
2017-09-25T00:26:58.401Z,93.6
2017-09-25T00:28:00.030Z,93.7
2017-09-25T00:29:01.660Z,93.4
2017-09-25T00:30:03.289Z,93.8
2017-09-25T00:31:04.919Z,94.2
2017-09-25T00:32:06.548Z,93.8
2017-09-25T00:33:08.181Z,94.0
2017-09-25T00:34:09.821Z,94.3
2017-09-25T00:35:11.441Z,94.7
2017-09-25T00:36:13.072Z,94.3
2017-09-25T00:37:14.704Z,94.0
2017-09-25T00:38:16.330Z,93.7
2017-09-25T00:39:17.966Z,93.7
2017-09-25T00:40:19.598Z,93.6
2017-09-25T00:41:21.228Z,94.1
2017-09-25T00:42:22.856Z,94.1
2017-09-25T00:43:24.489Z,94.4
2017-09-25T00:44:26.117Z,94.1
2017-09-25T00:45:27.751Z,94.2
2017-09-25T00:46:29.378Z,94.2
2017-09-25T00:47:31.011Z,94.0
2017-09-25T00:48:32.646Z,94.3
2017-09-25T00:49:34.270Z,94.5
2017-09-25T00:50:35.903Z,94.2
2017-09-25T00:51:37.534Z,93.8
2017-09-25T00:52:39.164Z,93.7
2017-09-25T00:53:40.793Z,93.9
2017-09-25T00:54:42.428Z,93.7
2017-09-25T00:55:44.054Z,93.7
2017-09-25T00:56:45.686Z,93.9
2017-09-25T00:57:47.316Z,94.3
2017-09-25T00:58:48.949Z,94.1
2017-09-25T00:59:50.581Z,93.8
2017-09-25T01:00:52.213Z,94.0
2017-09-25T01:01:53.845Z,94.2
2017-09-25T01:02:55.476Z,94.3
2017-09-25T01:03:57.103Z,94.5
2017-09-25T01:04:58.736Z,94.5
2017-09-25T01:06:00.366Z,94.3
2017-09-25T01:07:01.999Z,94.5
2017-09-25T01:08:03.629Z,94.5
2017-09-25T01:09:05.259Z,94.3
2017-09-25T01:10:06.896Z,94.1
2017-09-25T01:11:08.519Z,93.8
2017-09-25T01:12:10.153Z,92.6
2017-09-25T01:13:11.779Z,92.7
2017-09-25T01:14:13.412Z,93.2
2017-09-25T01:15:15.041Z,92.8
2017-09-25T01:16:16.676Z,92.6
2017-09-25T01:17:18.317Z,93.0
2017-09-25T01:18:19.944Z,93.8
2017-09-25T01:19:21.575Z,94.3
2017-09-25T01:20:23.204Z,94.4
2017-09-25T01:21:24.835Z,94.3
2017-09-25T01:22:26.465Z,94.5
2017-09-25T01:23:28.100Z,94.5
2017-09-25T01:24:29.727Z,94.2
2017-09-25T01:25:31.358Z,93.7
2017-09-25T01:26:32.984Z,93.7
2017-09-25T01:27:34.619Z,93.8
2017-09-25T01:28:36.244Z,94.2
2017-09-25T01:29:37.878Z,93.9
2017-09-25T01:30:39.521Z,94.4
2017-09-25T01:31:41.141Z,95.0
2017-09-25T01:32:42.768Z,94.5
2017-09-25T01:33:44.403Z,95.0
2017-09-25T01:34:46.033Z,95.1
2017-09-25T01:35:47.665Z,96.0
2017-09-25T01:36:49.293Z,96.0
2017-09-25T01:37:50.926Z,96.4
2017-09-25T01:38:52.556Z,96.5
2017-09-25T01:39:54.185Z,96.8
2017-09-25T01:40:55.817Z,96.6
2017-09-25T01:41:57.447Z,96.5
2017-09-25T01:42:59.079Z,96.3
2017-09-25T01:44:00.710Z,96.4
2017-09-25T01:45:02.354Z,96.7
2017-09-25T01:46:03.979Z,97.2
2017-09-25T01:47:05.609Z,97.0
2017-09-25T01:48:07.237Z,96.9
2017-09-25T01:49:08.874Z,96.8
2017-09-25T01:50:10.505Z,97.1
2017-09-25T01:51:12.129Z,96.5
2017-09-25T01:52:13.761Z,95.9
2017-09-25T01:53:15.401Z,94.9
2017-09-25T01:54:17.026Z,95.1
2017-09-25T01:55:18.658Z,93.8
2017-09-25T01:56:20.290Z,93.0
2017-09-25T01:57:21.920Z,92.3
2017-09-25T01:58:23.553Z,91.7
2017-09-25T01:59:25.187Z,92.1
2017-09-25T02:00:26.816Z,91.8
2017-09-25T02:01:28.443Z,92.1
2017-09-25T02:02:30.076Z,91.7
2017-09-25T02:03:31.711Z,91.5
2017-09-25T02:04:33.337Z,91.8
2017-09-25T02:05:34.968Z,91.9
2017-09-25T02:06:36.599Z,92.3
2017-09-25T02:07:38.228Z,92.4
2017-09-25T02:08:39.860Z,92.4
2017-09-25T02:09:41.492Z,93.2
2017-09-25T02:10:43.118Z,93.6
2017-09-25T02:11:44.751Z,93.8
2017-09-25T02:12:46.384Z,94.2
2017-09-25T02:13:48.018Z,94.6
2017-09-25T02:14:49.647Z,94.5
2017-09-25T02:15:51.274Z,95.2
2017-09-25T02:16:52.903Z,95.1
2017-09-25T02:17:54.534Z,94.5
2017-09-25T02:18:56.165Z,95.2
2017-09-25T02:19:57.797Z,95.0
2017-09-25T02:20:59.428Z,95.1
2017-09-25T02:22:01.055Z,96.0
2017-09-25T02:23:02.685Z,95.9
2017-09-25T02:24:04.313Z,96.7
2017-09-25T02:25:05.949Z,96.5
2017-09-25T02:26:07.571Z,96.9
2017-09-25T02:27:09.201Z,97.4
2017-09-25T02:28:10.831Z,97.7
2017-09-25T02:29:12.460Z,97.6
2017-09-25T02:30:14.090Z,97.8
2017-09-25T02:31:15.719Z,97.8
2017-09-25T02:32:17.360Z,97.6
2017-09-25T02:33:18.994Z,97.8
2017-09-25T02:34:20.627Z,97.2
2017-09-25T02:35:22.260Z,96.7
2017-09-25T02:36:23.885Z,96.6
2017-09-25T02:37:25.513Z,97.0
2017-09-25T02:38:27.147Z,96.4
2017-09-25T02:39:28.774Z,95.9
2017-09-25T02:40:30.404Z,95.9
2017-09-25T02:41:32.034Z,95.6
2017-09-25T02:42:33.683Z,95.7
2017-09-25T02:43:35.312Z,96.2
2017-09-25T02:44:36.939Z,96.1
2017-09-25T02:45:38.567Z,96.6
2017-09-25T02:46:40.197Z,96.4
2017-09-25T02:47:41.826Z,96.6
2017-09-25T02:48:43.459Z,96.6
2017-09-25T02:49:45.092Z,96.7
2017-09-25T02:50:46.718Z,96.7
2017-09-25T02:51:48.357Z,96.4
2017-09-25T02:52:49.978Z,95.9
2017-09-25T02:53:51.609Z,95.8
2017-09-25T02:54:53.237Z,96.0
2017-09-25T02:55:54.868Z,95.8
2017-09-25T02:56:56.498Z,95.8
2017-09-25T02:57:58.126Z,95.2
2017-09-25T02:58:59.753Z,95.6
2017-09-25T03:00:01.382Z,95.3
2017-09-25T03:01:03.012Z,95.0
2017-09-25T03:02:04.644Z,94.9
2017-09-25T03:03:06.274Z,95.2
2017-09-25T03:04:07.907Z,94.9
2017-09-25T03:05:09.533Z,95.1
2017-09-25T03:06:11.166Z,95.4
2017-09-25T03:07:12.796Z,96.2
2017-09-25T03:08:14.434Z,95.7
2017-09-25T03:09:16.061Z,95.6
2017-09-25T03:10:17.708Z,96.0
2017-09-25T03:11:19.344Z,96.5
2017-09-25T03:12:20.969Z,96.6
2017-09-25T03:13:22.615Z,97.2
2017-09-25T03:14:24.231Z,97.7
2017-09-25T03:15:25.862Z,97.2
2017-09-25T03:16:27.491Z,97.6
2017-09-25T03:17:29.120Z,97.9
2017-09-25T03:18:30.759Z,98.0
2017-09-25T03:19:32.389Z,97.9
2017-09-25T03:20:34.019Z,97.5
2017-09-25T03:21:35.652Z,97.6
2017-09-25T03:22:37.280Z,97.1
2017-09-25T03:23:38.911Z,96.6
2017-09-25T03:24:40.544Z,96.4
2017-09-25T03:25:42.174Z,96.1
2017-09-25T03:26:43.804Z,94.9
2017-09-25T03:27:45.433Z,94.7
2017-09-25T03:28:47.061Z,94.0
2017-09-25T03:29:48.693Z,93.9
2017-09-25T03:30:50.325Z,93.5
2017-09-25T03:31:51.952Z,94.1
2017-09-25T03:32:53.584Z,93.7
2017-09-25T03:33:55.214Z,93.5
2017-09-25T03:34:56.842Z,93.8
2017-09-25T03:35:58.477Z,93.3
2017-09-25T03:37:00.106Z,93.7
2017-09-25T03:38:01.730Z,92.8
2017-09-25T03:39:03.361Z,92.7
2017-09-25T03:40:04.992Z,93.0
2017-09-25T03:41:06.623Z,93.0
2017-09-25T03:42:08.253Z,93.2
2017-09-25T03:43:09.882Z,92.9
2017-09-25T03:44:11.541Z,92.7
2017-09-25T03:45:13.173Z,92.5
2017-09-25T03:46:14.802Z,92.8
2017-09-25T03:47:16.436Z,92.6
2017-09-25T03:48:18.065Z,92.7
2017-09-25T03:49:19.693Z,92.7
2017-09-25T03:50:21.324Z,92.4
2017-09-25T03:51:22.954Z,92.8
2017-09-25T03:52:24.587Z,92.9
2017-09-25T03:53:26.216Z,93.0
2017-09-25T03:54:27.863Z,93.2
2017-09-25T03:55:29.491Z,93.2
2017-09-25T03:56:31.110Z,92.8
2017-09-25T03:57:32.745Z,93.1
2017-09-25T03:58:34.376Z,92.7
2017-09-25T03:59:36.006Z,92.8
2017-09-25T04:00:37.635Z,92.6
2017-09-25T04:01:39.269Z,92.9
2017-09-25T04:02:40.897Z,92.7
2017-09-25T04:03:42.526Z,92.8
2017-09-25T04:04:44.156Z,92.3
2017-09-25T04:05:45.786Z,92.9
2017-09-25T04:06:47.415Z,91.6
2017-09-25T04:07:49.053Z,92.5
2017-09-25T04:08:50.679Z,92.8
2017-09-25T04:09:52.309Z,92.1
2017-09-25T04:10:53.938Z,92.8
2017-09-25T04:11:55.568Z,92.7
2017-09-25T04:12:57.199Z,92.9
2017-09-25T04:13:58.827Z,93.6
2017-09-25T04:15:00.460Z,93.5
2017-09-25T04:16:02.090Z,93.0
2017-09-25T04:17:03.719Z,92.9
2017-09-25T04:18:05.349Z,93.2
2017-09-25T04:19:06.978Z,92.5
2017-09-25T04:20:08.607Z,92.9
2017-09-25T04:21:10.241Z,92.1
2017-09-25T04:22:11.870Z,92.8
2017-09-25T04:23:13.503Z,93.0
2017-09-25T04:24:15.133Z,92.6
2017-09-25T04:25:16.781Z,92.7
2017-09-25T04:26:18.411Z,92.9
2017-09-25T04:27:20.038Z,92.4
2017-09-25T04:28:21.671Z,92.5
2017-09-25T04:29:23.303Z,94.0
2017-09-25T04:30:24.935Z,94.4
2017-09-25T04:31:26.564Z,95.3
2017-09-25T04:32:28.191Z,95.1
2017-09-25T04:33:29.819Z,95.7
2017-09-25T04:34:31.454Z,96.4
2017-09-25T04:35:33.082Z,97.7
2017-09-25T04:36:34.713Z,97.1
2017-09-25T04:37:36.346Z,97.1
2017-09-25T04:38:37.972Z,97.4
2017-09-25T04:39:39.602Z,96.7
2017-09-25T04:40:41.232Z,96.6
2017-09-25T04:41:42.865Z,96.2
2017-09-25T04:42:44.496Z,96.7
2017-09-25T04:43:46.126Z,95.9
2017-09-25T04:44:47.761Z,95.7
2017-09-25T04:45:49.388Z,96.1
2017-09-25T04:46:51.018Z,95.1
2017-09-25T04:47:52.646Z,94.8
2017-09-25T04:48:54.279Z,95.4
2017-09-25T04:49:55.907Z,95.8
2017-09-25T04:50:57.540Z,96.2
2017-09-25T04:51:59.170Z,96.4
2017-09-25T04:53:00.800Z,96.6
2017-09-25T04:54:02.427Z,96.6
2017-09-25T04:55:04.060Z,96.7
2017-09-25T04:56:05.691Z,96.5
2017-09-25T04:57:07.319Z,96.9
2017-09-25T04:58:08.952Z,97.1
2017-09-25T04:59:10.585Z,97.5
2017-09-25T05:00:12.231Z,96.5
2017-09-25T05:01:13.842Z,96.6
2017-09-25T05:02:15.481Z,96.5
2017-09-25T05:03:17.113Z,97.1
2017-09-25T05:04:18.745Z,96.7
2017-09-25T05:05:20.373Z,97.0
2017-09-25T05:06:22.050Z,97.0
2017-09-25T05:07:23.852Z,96.8
2017-09-25T05:08:25.491Z,96.5
2017-09-25T05:09:27.130Z,96.9
2017-09-25T05:10:28.759Z,97.5
2017-09-25T05:11:30.388Z,97.8
2017-09-25T05:12:32.998Z,98.4
2017-09-25T05:13:34.630Z,98.2
2017-09-25T05:14:36.259Z,97.7
2017-09-25T05:15:37.892Z,98.6
2017-09-25T05:16:39.522Z,99.2
2017-09-25T05:17:41.152Z,99.1
2017-09-25T05:18:42.810Z,98.9
2017-09-25T05:19:44.437Z,99.5
2017-09-25T05:20:46.069Z,99.8
2017-09-25T05:21:47.717Z,99.7
2017-09-25T05:22:49.347Z,99.3
2017-09-25T05:23:50.977Z,98.8
2017-09-25T05:24:52.613Z,99.1
2017-09-25T05:25:54.242Z,98.6
2017-09-25T05:26:55.873Z,97.8
2017-09-25T05:27:57.508Z,97.8
2017-09-25T05:28:59.139Z,97.8
2017-09-25T05:30:00.826Z,97.1
2017-09-25T05:31:02.493Z,97.2
2017-09-25T05:32:04.124Z,97.8
2017-09-25T05:33:05.755Z,97.6
2017-09-25T05:34:07.390Z,97.7
2017-09-25T05:35:09.023Z,98.2
2017-09-25T05:36:10.656Z,97.8
2017-09-25T05:37:12.287Z,98.1
2017-09-25T05:38:13.916Z,99.2
2017-09-25T05:39:15.548Z,99.4
2017-09-25T05:40:17.180Z,98.8
2017-09-25T05:41:18.818Z,98.6
2017-09-25T05:42:20.453Z,97.8
2017-09-25T05:43:22.088Z,98.4
2017-09-25T05:44:23.718Z,97.7
2017-09-25T05:45:25.354Z,97.8
2017-09-25T05:46:26.986Z,97.2
2017-09-25T05:47:28.623Z,97.6
2017-09-25T05:48:30.258Z,97.7
2017-09-25T05:49:31.891Z,97.3
2017-09-25T05:50:33.530Z,97.2
2017-09-25T05:51:35.164Z,97.0
2017-09-25T05:52:36.798Z,96.8
2017-09-25T05:53:38.431Z,97.5
2017-09-25T05:54:40.064Z,97.5
2017-09-25T05:55:41.700Z,97.8
2017-09-25T05:56:43.335Z,98.0
2017-09-25T05:57:44.967Z,97.8
2017-09-25T05:58:46.600Z,97.8
2017-09-25T05:59:48.237Z,98.1
2017-09-25T06:00:49.877Z,97.8
2017-09-25T06:01:51.507Z,98.3
2017-09-25T06:02:53.143Z,98.6
2017-09-25T06:03:54.787Z,98.1
2017-09-25T06:04:56.414Z,97.9
2017-09-25T06:05:58.049Z,97.7
2017-09-25T06:06:59.685Z,98.4
2017-09-25T06:08:01.317Z,98.2
2017-09-25T06:09:02.951Z,97.9
2017-09-25T06:10:04.587Z,98.0
2017-09-25T06:11:06.221Z,98.5
2017-09-25T06:12:07.856Z,99.1
2017-09-25T06:13:09.492Z,99.0
2017-09-25T06:14:11.127Z,99.5
2017-09-25T06:15:12.762Z,99.6
2017-09-25T06:16:14.399Z,99.5
2017-09-25T06:17:16.031Z,99.6
2017-09-25T06:18:17.665Z,99.7
2017-09-25T06:19:19.300Z,100.0
2017-09-25T06:20:20.934Z,100.0
2017-09-25T06:21:22.568Z,100.0
2017-09-25T06:22:24.205Z,100.0
2017-09-25T06:23:25.843Z,100.0
2017-09-25T06:24:27.478Z,99.8
2017-09-25T06:25:29.112Z,100.0
2017-09-25T06:26:30.751Z,100.0
2017-09-25T06:27:32.385Z,100.0
2017-09-25T06:28:34.020Z,100.0
2017-09-25T06:29:35.655Z,100.0
2017-09-25T06:30:37.291Z,100.0
2017-09-25T06:31:38.932Z,100.0
2017-09-25T06:32:40.563Z,100.0
2017-09-25T06:33:42.195Z,100.0
2017-09-25T06:34:43.829Z,100.0
2017-09-25T06:35:45.461Z,100.0
2017-09-25T06:36:47.113Z,100.0
2017-09-25T06:37:48.749Z,100.0
2017-09-25T06:38:50.385Z,100.0
2017-09-25T06:39:52.020Z,100.0
2017-09-25T06:40:53.653Z,100.0
2017-09-25T06:41:55.291Z,100.0
2017-09-25T06:42:56.928Z,100.0
2017-09-25T06:43:58.566Z,100.0
2017-09-25T06:45:00.199Z,100.0
2017-09-25T06:46:01.834Z,100.0
2017-09-25T06:47:03.480Z,100.0
2017-09-25T06:48:05.112Z,100.0
2017-09-25T06:49:06.752Z,100.0
2017-09-25T06:50:08.387Z,100.0
2017-09-25T06:51:10.022Z,100.0
2017-09-25T06:52:11.659Z,100.0
2017-09-25T06:53:13.297Z,100.0
2017-09-25T06:54:14.930Z,100.0
2017-09-25T06:55:16.563Z,100.0
2017-09-25T06:56:18.200Z,100.0
2017-09-25T06:57:19.833Z,100.0
2017-09-25T06:58:21.472Z,100.0
2017-09-25T06:59:23.109Z,100.0
2017-09-25T07:00:24.745Z,100.0
2017-09-25T07:01:26.384Z,100.0
2017-09-25T07:02:28.022Z,100.0
2017-09-25T07:03:29.655Z,100.0
2017-09-25T07:04:31.290Z,100.0
2017-09-25T07:05:32.927Z,100.0
2017-09-25T07:06:34.574Z,100.0
2017-09-25T07:07:36.202Z,100.0
2017-09-25T07:08:37.840Z,100.0
2017-09-25T07:09:39.476Z,100.0
2017-09-25T07:10:41.119Z,100.0
2017-09-25T07:11:42.756Z,100.0
2017-09-25T07:12:44.390Z,100.0
2017-09-25T07:13:46.024Z,100.0
2017-09-25T07:14:47.667Z,100.0
2017-09-25T07:15:49.302Z,100.0
2017-09-25T07:16:50.936Z,100.0
2017-09-25T07:17:52.571Z,100.0
2017-09-25T07:18:54.208Z,100.0
2017-09-25T07:19:55.842Z,100.0
2017-09-25T07:20:57.478Z,100.0
2017-09-25T07:21:59.118Z,100.0
2017-09-25T07:23:00.756Z,100.0
2017-09-25T07:24:02.393Z,100.0
2017-09-25T07:25:04.027Z,100.0
2017-09-25T07:26:05.664Z,100.0
2017-09-25T07:27:07.299Z,100.0
2017-09-25T07:28:08.938Z,100.0
2017-09-25T07:29:10.574Z,100.0
2017-09-25T07:30:12.214Z,100.0
2017-09-25T07:31:13.847Z,99.7
2017-09-25T07:32:15.484Z,99.4
2017-09-25T07:33:17.153Z,99.5
2017-09-25T07:34:18.789Z,99.6
2017-09-25T07:35:20.426Z,99.2
2017-09-25T07:36:22.068Z,98.5
2017-09-25T07:37:23.696Z,98.7
2017-09-25T07:38:25.339Z,99.2
2017-09-25T07:39:26.973Z,98.7
2017-09-25T07:40:28.608Z,98.8
2017-09-25T07:41:30.243Z,98.5
2017-09-25T07:42:31.879Z,99.4
2017-09-25T07:43:33.520Z,99.2
2017-09-25T07:44:35.169Z,99.4
2017-09-25T07:45:36.804Z,99.2
2017-09-25T07:46:38.437Z,99.1
2017-09-25T07:47:40.070Z,99.2
2017-09-25T07:48:41.710Z,99.2
2017-09-25T07:49:43.346Z,99.3
2017-09-25T07:50:44.981Z,99.9
2017-09-25T07:51:46.622Z,99.4
2017-09-25T07:52:48.255Z,98.9
2017-09-25T07:53:49.889Z,99.4
2017-09-25T07:54:51.526Z,98.7
2017-09-25T07:55:53.160Z,98.7
2017-09-25T07:56:54.798Z,98.5
2017-09-25T07:57:56.432Z,98.5
2017-09-25T07:58:58.068Z,97.7
2017-09-25T07:59:59.704Z,97.0
2017-09-25T08:01:01.341Z,97.6
2017-09-25T08:02:02.973Z,97.8
2017-09-25T08:03:04.610Z,97.8
2017-09-25T08:04:06.248Z,98.2
2017-09-25T08:05:07.929Z,98.1
2017-09-25T08:06:09.560Z,97.9
2017-09-25T08:07:11.192Z,98.3
2017-09-25T08:08:12.829Z,97.8
2017-09-25T08:09:14.466Z,97.9
2017-09-25T08:10:16.104Z,97.8
2017-09-25T08:11:17.740Z,98.0
2017-09-25T08:12:19.378Z,97.9
2017-09-25T08:13:21.019Z,99.0
2017-09-25T08:14:22.653Z,98.9
2017-09-25T08:15:24.289Z,97.6
2017-09-25T08:16:25.924Z,96.5
2017-09-25T08:17:27.559Z,95.5
2017-09-25T08:18:29.196Z,95.6
2017-09-25T08:19:30.832Z,95.3
2017-09-25T08:20:32.472Z,94.6
2017-09-25T08:21:34.107Z,94.3
2017-09-25T08:22:35.742Z,94.3
2017-09-25T08:23:37.381Z,94.1
2017-09-25T08:24:39.019Z,94.0
2017-09-25T08:25:40.660Z,94.4
2017-09-25T08:26:42.299Z,95.3
2017-09-25T08:27:43.937Z,96.0
2017-09-25T08:28:45.575Z,96.6
2017-09-25T08:29:47.217Z,96.7
2017-09-25T08:30:48.851Z,96.5
2017-09-25T08:31:50.484Z,96.5
2017-09-25T08:32:52.123Z,96.5
2017-09-25T08:33:53.765Z,96.9
2017-09-25T08:34:55.400Z,96.7
2017-09-25T08:35:57.037Z,97.1
2017-09-25T08:36:58.673Z,96.7
2017-09-25T08:38:00.308Z,96.1
2017-09-25T08:39:01.948Z,96.7
2017-09-25T08:40:03.587Z,97.1
2017-09-25T08:41:05.224Z,96.3
2017-09-25T08:42:06.864Z,96.0
2017-09-25T08:43:08.498Z,95.3
2017-09-25T08:44:10.135Z,96.0
2017-09-25T08:45:11.772Z,96.2
2017-09-25T08:46:13.410Z,95.3
2017-09-25T08:47:15.046Z,94.0
2017-09-25T08:48:16.686Z,93.7
2017-09-25T08:49:18.324Z,94.4
2017-09-25T08:50:19.956Z,94.2
2017-09-25T08:51:21.596Z,92.4
2017-09-25T08:52:23.247Z,93.1
2017-09-25T08:53:24.885Z,92.3
2017-09-25T08:54:26.521Z,92.6
2017-09-25T08:55:28.162Z,92.2
2017-09-25T08:56:29.796Z,92.4
2017-09-25T08:57:31.435Z,92.3
2017-09-25T08:58:33.072Z,92.2
2017-09-25T08:59:34.710Z,92.2
2017-09-25T09:00:36.356Z,92.1
2017-09-25T09:01:37.998Z,92.1
2017-09-25T09:02:39.667Z,91.3
2017-09-25T09:03:41.308Z,91.5
2017-09-25T09:04:42.942Z,91.0
2017-09-25T09:05:44.582Z,91.3
2017-09-25T09:06:46.220Z,91.2
2017-09-25T09:07:47.856Z,90.4
2017-09-25T09:08:49.496Z,90.7
2017-09-25T09:09:51.135Z,91.4
2017-09-25T09:10:52.772Z,90.8
2017-09-25T09:11:54.410Z,90.3
2017-09-25T09:12:56.050Z,90.4
2017-09-25T09:13:57.687Z,89.7
2017-09-25T09:14:59.326Z,90.9
2017-09-25T09:16:00.965Z,89.7
2017-09-25T09:17:02.600Z,89.8
2017-09-25T09:18:04.238Z,89.8
2017-09-25T09:19:05.880Z,88.5
2017-09-25T09:20:07.527Z,89.5
2017-09-25T09:21:09.165Z,89.8
2017-09-25T09:22:10.802Z,89.8
2017-09-25T09:23:12.439Z,89.8
2017-09-25T09:24:14.080Z,89.8
2017-09-25T09:25:15.720Z,89.3
2017-09-25T09:26:17.358Z,87.5
2017-09-25T09:27:18.993Z,87.7
2017-09-25T09:28:20.630Z,86.4
2017-09-25T09:29:22.264Z,85.0
2017-09-25T09:30:23.903Z,85.6
2017-09-25T09:31:25.542Z,84.1
2017-09-25T09:32:27.182Z,83.4
2017-09-25T09:33:28.818Z,84.1
2017-09-25T09:34:30.456Z,83.8
2017-09-25T09:35:32.098Z,83.4
2017-09-25T09:36:33.735Z,82.5
2017-09-25T09:37:35.382Z,83.4
2017-09-25T09:38:37.021Z,83.9
2017-09-25T09:39:38.658Z,83.8
2017-09-25T09:40:40.295Z,84.3
2017-09-25T09:41:41.930Z,85.4
2017-09-25T09:42:43.569Z,86.4
2017-09-25T09:43:45.203Z,85.1
2017-09-25T09:44:46.840Z,84.3
2017-09-25T09:45:48.482Z,83.7
2017-09-25T09:46:50.120Z,83.8
2017-09-25T09:47:51.757Z,83.1
2017-09-25T09:48:53.387Z,84.9
2017-09-25T09:49:55.027Z,86.5
2017-09-25T09:50:56.667Z,84.4
2017-09-25T09:51:58.306Z,84.6
2017-09-25T09:52:59.943Z,84.5
2017-09-25T09:54:01.581Z,84.3
2017-09-25T09:55:03.222Z,83.7
2017-09-25T09:56:04.853Z,84.5
2017-09-25T09:57:06.488Z,82.3
2017-09-25T09:58:08.135Z,82.5
2017-09-25T09:59:09.779Z,81.8
2017-09-25T10:00:11.407Z,82.6
2017-09-25T10:01:13.043Z,82.4
2017-09-25T10:02:14.683Z,83.2
2017-09-25T10:03:16.316Z,83.3
2017-09-25T10:04:17.962Z,83.4
2017-09-25T10:05:19.599Z,83.2
2017-09-25T10:06:21.234Z,83.6
2017-09-25T10:07:22.870Z,83.5
2017-09-25T10:08:24.508Z,83.7
2017-09-25T10:09:26.142Z,82.2
2017-09-25T10:10:27.780Z,82.6
2017-09-25T10:11:29.417Z,82.7
2017-09-25T10:12:31.054Z,82.2
2017-09-25T10:13:32.690Z,81.7
2017-09-25T10:14:34.331Z,81.6
2017-09-25T10:15:35.964Z,81.4
2017-09-25T10:16:37.613Z,80.9
2017-09-25T10:17:39.249Z,80.0
2017-09-25T10:18:40.887Z,80.9
2017-09-25T10:19:42.523Z,81.5
2017-09-25T10:20:44.159Z,79.5
2017-09-25T10:21:45.803Z,79.3
2017-09-25T10:22:47.438Z,79.5
2017-09-25T10:23:49.076Z,79.6
2017-09-25T10:24:50.712Z,79.5
2017-09-25T10:25:52.352Z,78.8
2017-09-25T10:26:53.990Z,75.8
2017-09-25T10:27:55.630Z,74.4
2017-09-25T10:28:57.268Z,75.1
2017-09-25T10:29:58.908Z,75.3
2017-09-25T10:31:00.545Z,75.9
2017-09-25T10:32:02.188Z,75.7
2017-09-25T10:33:03.832Z,74.0
2017-09-25T10:34:05.492Z,73.8
2017-09-25T10:35:07.147Z,74.5
2017-09-25T10:36:08.790Z,73.4
2017-09-25T10:37:10.456Z,74.6
2017-09-25T10:38:12.091Z,75.6
2017-09-25T10:39:13.730Z,76.5
2017-09-25T10:40:15.371Z,75.8
2017-09-25T10:41:17.034Z,74.4
2017-09-25T10:42:18.677Z,76.0
2017-09-25T10:43:20.331Z,74.8
2017-09-25T10:44:21.969Z,75.0
2017-09-25T10:45:23.603Z,73.8
2017-09-25T10:46:25.238Z,75.9
2017-09-25T10:47:26.890Z,74.8
2017-09-25T10:48:28.525Z,73.4
2017-09-25T10:49:30.165Z,73.8
2017-09-25T10:50:31.803Z,74.2
2017-09-25T10:51:33.443Z,75.7
2017-09-25T10:52:35.078Z,75.8
2017-09-25T10:53:36.729Z,74.7
2017-09-25T10:54:38.365Z,75.2
2017-09-25T10:55:40.002Z,76.0
2017-09-25T10:56:41.639Z,76.6
2017-09-25T10:57:43.287Z,77.8
2017-09-25T10:58:44.926Z,77.9
2017-09-25T10:59:46.555Z,78.8
2017-09-25T11:00:48.193Z,78.2
2017-09-25T11:01:49.842Z,78.8
2017-09-25T11:02:51.480Z,79.3
2017-09-25T11:03:53.116Z,79.9
2017-09-25T11:04:54.750Z,81.0
2017-09-25T11:05:56.390Z,81.6
2017-09-25T11:06:58.024Z,80.1
2017-09-25T11:07:59.659Z,79.7
2017-09-25T11:09:01.299Z,80.3
2017-09-25T11:10:02.932Z,81.7
2017-09-25T11:11:04.579Z,81.6
2017-09-25T11:12:06.213Z,80.3
2017-09-25T11:13:07.855Z,79.6
2017-09-25T11:14:09.487Z,80.2
2017-09-25T11:15:11.122Z,82.4
2017-09-25T11:16:12.765Z,82.4
2017-09-25T11:17:14.400Z,81.9
2017-09-25T11:18:16.036Z,82.1
2017-09-25T11:19:17.669Z,83.0
2017-09-25T11:20:19.306Z,82.5
2017-09-25T11:21:20.939Z,83.3
2017-09-25T11:22:22.573Z,84.3
2017-09-25T11:23:24.206Z,83.6
2017-09-25T11:24:25.842Z,83.5
2017-09-25T11:25:27.476Z,83.9
2017-09-25T11:26:29.109Z,83.7
2017-09-25T11:27:30.744Z,83.4
2017-09-25T11:28:32.377Z,83.6
2017-09-25T11:29:34.008Z,84.4
2017-09-25T11:30:35.646Z,84.5
2017-09-25T11:31:37.284Z,85.2
2017-09-25T11:32:38.919Z,85.4
2017-09-25T11:33:40.556Z,85.5
2017-09-25T11:34:42.191Z,84.2
2017-09-25T11:35:43.823Z,83.7
2017-09-25T11:36:45.466Z,84.1
2017-09-25T11:37:47.104Z,83.8
2017-09-25T11:38:48.733Z,83.5
2017-09-25T11:39:50.369Z,82.7
2017-09-25T11:40:52.005Z,83.7
2017-09-25T11:41:53.643Z,84.5
2017-09-25T11:42:55.276Z,83.5
2017-09-25T11:43:56.908Z,83.7
2017-09-25T11:44:58.543Z,83.7
2017-09-25T11:46:00.180Z,84.3
2017-09-25T11:47:01.817Z,83.6
2017-09-25T11:48:03.450Z,83.4
2017-09-25T11:49:05.093Z,84.3
2017-09-25T11:50:06.725Z,84.7
2017-09-25T11:51:08.357Z,85.1
2017-09-25T11:52:09.995Z,85.1
2017-09-25T11:53:11.629Z,85.9
2017-09-25T11:54:13.265Z,85.2
2017-09-25T11:55:14.899Z,84.6
2017-09-25T11:56:16.536Z,84.6
2017-09-25T11:57:18.172Z,84.7
2017-09-25T11:58:19.804Z,84.0
2017-09-25T11:59:21.438Z,83.7
2017-09-25T12:00:23.072Z,83.3
2017-09-25T12:01:24.708Z,83.6
2017-09-25T12:02:26.343Z,83.5
2017-09-25T12:03:27.981Z,84.1
2017-09-25T12:04:29.616Z,83.5
2017-09-25T12:05:31.249Z,83.4
2017-09-25T12:06:32.893Z,83.2
2017-09-25T12:07:34.523Z,84.0
2017-09-25T12:08:36.180Z,84.3
2017-09-25T12:09:37.801Z,85.7
2017-09-25T12:10:39.440Z,83.9
2017-09-25T12:11:41.077Z,84.8
2017-09-25T12:12:42.711Z,84.5
2017-09-25T12:13:44.345Z,81.4
2017-09-25T12:14:45.979Z,83.1
2017-09-25T12:15:47.615Z,82.6
2017-09-25T12:16:49.250Z,81.6
2017-09-25T12:17:50.888Z,81.4
2017-09-25T12:18:52.521Z,82.8
2017-09-25T12:19:54.159Z,81.0
2017-09-25T12:20:55.796Z,80.7
2017-09-25T12:21:57.429Z,81.0
2017-09-25T12:22:59.070Z,80.2
2017-09-25T12:24:00.707Z,80.1
2017-09-25T12:25:02.360Z,80.6
2017-09-25T12:26:03.993Z,79.6
2017-09-25T12:27:05.633Z,79.4
2017-09-25T12:28:07.268Z,79.4
2017-09-25T12:29:08.912Z,78.7
2017-09-25T12:30:10.553Z,78.5
2017-09-25T12:31:12.189Z,77.8
2017-09-25T12:32:13.829Z,77.1
2017-09-25T12:33:15.463Z,78.2
2017-09-25T12:34:17.097Z,79.1
2017-09-25T12:35:18.735Z,78.1
2017-09-25T12:36:20.371Z,79.3
2017-09-25T12:37:22.012Z,79.3
2017-09-25T12:38:23.646Z,78.8
2017-09-25T12:39:25.283Z,79.2
2017-09-25T12:40:26.920Z,78.8
2017-09-25T12:41:28.557Z,80.1
2017-09-25T12:42:30.193Z,81.1
2017-09-25T12:43:31.825Z,82.2
2017-09-25T12:44:33.467Z,82.0
2017-09-25T12:45:35.104Z,81.4
2017-09-25T12:46:36.741Z,81.8
2017-09-25T12:47:38.376Z,81.4
2017-09-25T12:48:40.010Z,81.4
2017-09-25T12:49:41.645Z,82.0
2017-09-25T12:50:43.300Z,81.7
2017-09-25T12:51:44.936Z,83.3
2017-09-25T12:52:46.572Z,81.7
2017-09-25T12:53:48.209Z,79.9
2017-09-25T12:54:49.847Z,80.2
2017-09-25T12:55:51.482Z,79.6
2017-09-25T12:56:53.118Z,80.1
2017-09-25T12:57:54.753Z,80.4
2017-09-25T12:58:56.392Z,80.3
2017-09-25T12:59:58.027Z,80.6
2017-09-25T13:00:59.668Z,81.4
2017-09-25T13:02:01.324Z,82.2
2017-09-25T13:03:02.946Z,79.7
2017-09-25T13:04:04.580Z,79.1
2017-09-25T13:05:06.217Z,78.0
2017-09-25T13:06:07.855Z,76.4
2017-09-25T13:07:09.497Z,73.6
2017-09-25T13:08:11.133Z,70.9
2017-09-25T13:09:12.768Z,71.3
2017-09-25T13:10:14.406Z,70.0
2017-09-25T13:11:16.044Z,64.9
2017-09-25T13:12:17.680Z,56.2
2017-09-25T13:13:19.321Z,50.9
2017-09-25T13:14:20.962Z,50.8
2017-09-25T13:15:22.604Z,51.9
2017-09-25T13:16:24.246Z,49.3
2017-09-25T13:17:25.886Z,49.9
2017-09-25T13:18:27.525Z,49.4
2017-09-25T13:19:29.166Z,50.4
2017-09-25T13:20:30.833Z,54.9
2017-09-25T13:21:32.455Z,58.4
2017-09-25T13:22:34.101Z,60.0
2017-09-25T13:23:35.745Z,60.7
2017-09-25T13:24:37.382Z,62.1
2017-09-25T13:25:39.019Z,66.5
2017-09-25T13:26:40.655Z,66.1
2017-09-25T13:27:42.295Z,68.2
2017-09-25T13:28:43.935Z,69.7
2017-09-25T13:29:45.577Z,69.4
2017-09-25T13:30:47.213Z,71.7
2017-09-25T13:31:48.852Z,70.1
2017-09-25T13:32:50.492Z,72.3
2017-09-25T13:33:52.132Z,70.9
2017-09-25T13:34:53.769Z,71.7
2017-09-25T13:35:55.407Z,72.3
2017-09-25T13:36:57.047Z,71.7
2017-09-25T13:37:58.685Z,71.7